Weather at Kornegay Private Airport

Public forecast

Using degrees Fahrenheit for public forecast. Weather courtesy of forecast.io.

Closest aviation weather report (METAR) to Kornegay Private Airport

Closest report is Valley International Airport, 5.9 nm (10.9 km) NW. Retrieved 2021/01/15 15:52 UTC (9 minutes ago):

KHRL 151552Z 36012KT 10SM CLR 14/02 A3022 RMK AO2 SLP232 T01390022

Closest aviation forecast (TAF) to Kornegay Private Airport

Closest forecast is Valley International Airport, 5.9 nm (10.9 km) NW. Retrieved 2021/01/15 12:22 UTC (4 hours ago):

TAF KHRL 151120Z 1512/1612 33008KT P6SM FEW250 FM151700 01012G20KT P6SM SCT250 FM152300 VRB05KT P6SM FEW250